Time;durP1;ratioP1;P1;durP2;ratioP2;P2;SDS_P1;SDS_P2;PMS_P1;PMS_P2;Temp;Humidity;BMP_temperature;BMP_pressure;BME280_temperature;BME280_humidity;BME280_pressure;Samples;Min_cycle;Max_cycle;Signal;HPM_P1;HPM_P2
2023/12/27 00:01:45;;;;;;;35.50;19.70;;;;;3.70;101495.00;;;;10396515;28;20229;-77
2023/12/27 00:06:46;;;;;;;25.73;10.87;;;;;3.70;101490.00;;;;10405385;28;20276;-77
2023/12/27 00:11:48;;;;;;;22.53;11.97;;;;;3.90;101489.00;;;;10384211;28;20313;-76
2023/12/27 00:16:49;;;;;;;24.63;12.17;;;;;3.90;101483.00;;;;10409227;28;20226;-77
2023/12/27 00:21:50;;;;;;;22.77;11.30;;;;;3.90;101479.00;;;;10407624;28;20252;-77
2023/12/27 00:26:51;;;;;;;23.43;11.63;;;;;3.80;101475.00;;;;10371320;28;20258;-76
2023/12/27 00:31:53;;;;;;;23.73;12.27;;;;;3.80;101469.00;;;;10386313;28;20305;-77
2023/12/27 00:36:54;;;;;;;30.33;12.37;;;;;3.80;101476.00;;;;10370584;28;20226;-76
2023/12/27 00:41:56;;;;;;;29.43;13.00;;;;;3.90;101468.00;;;;10370334;28;20226;-78
2023/12/27 00:46:57;;;;;;;32.83;11.63;;;;;4.00;101466.00;;;;10399740;28;20279;-76
2023/12/27 00:51:58;;;;;;;35.67;12.83;;;;;4.50;101466.00;;;;10371447;28;20226;-76
2023/12/27 00:57:00;;;;;;;25.93;10.87;;;;;4.90;101458.00;;;;10397384;28;20228;-77
2023/12/27 01:02:02;;;;;;;40.37;12.20;;;;;5.20;101434.00;;;;10369467;28;20233;-76
2023/12/27 01:07:04;;;;;;;28.77;11.90;;;;;5.40;101428.00;;;;10373488;28;20223;-77
2023/12/27 01:12:06;;;;;;;25.10;9.43;;;;;5.40;101432.00;;;;10369933;28;20245;-83
2023/12/27 01:17:07;;;;;;;23.73;9.47;;;;;5.40;101429.00;;;;10380732;28;20230;-83
2023/12/27 01:22:09;;;;;;;24.07;9.70;;;;;5.40;101435.00;;;;10370789;28;20222;-83
2023/12/27 01:27:11;;;;;;;20.93;9.37;;;;;5.40;101419.00;;;;10378728;28;20234;-83
2023/12/27 01:32:12;;;;;;;25.47;9.57;;;;;5.40;101413.00;;;;10383913;28;20234;-83
2023/12/27 01:37:13;;;;;;;29.83;10.37;;;;;5.50;101402.00;;;;10409464;28;20293;-83
2023/12/27 01:42:14;;;;;;;20.87;9.73;;;;;5.50;101404.00;;;;10376119;28;20250;-83
2023/12/27 01:47:16;;;;;;;20.57;8.93;;;;;5.50;101407.00;;;;10378048;28;20210;-84
2023/12/27 01:52:17;;;;;;;20.90;9.03;;;;;5.50;101410.00;;;;10416013;28;20245;-83
2023/12/27 01:57:19;;;;;;;27.90;10.17;;;;;5.50;101401.00;;;;10391442;28;20241;-83
2023/12/27 02:02:22;;;;;;;24.43;10.27;;;;;5.50;101399.00;;;;10360378;28;20252;-83
2023/12/27 02:07:24;;;;;;;27.47;11.43;;;;;5.50;101400.00;;;;10374047;28;20302;-83
2023/12/27 02:12:31;;;;;;;29.43;12.20;;;;;5.40;101402.00;;;;10383863;28;20687;-83
2023/12/27 02:17:34;;;;;;;21.77;10.77;;;;;5.40;101388.00;;;;10367804;28;20257;-83
2023/12/27 02:22:35;;;;;;;21.13;11.37;;;;;5.40;101386.00;;;;10404975;28;20234;-78
2023/12/27 02:27:37;;;;;;;23.83;10.83;;;;;5.40;101384.00;;;;10419591;28;20244;-78
2023/12/27 02:32:38;;;;;;;25.20;8.97;;;;;5.50;101375.00;;;;10408930;28;20982;-78
2023/12/27 02:37:40;;;;;;;22.30;10.53;;;;;5.80;101364.00;;;;10415836;28;20272;-78
2023/12/27 02:42:41;;;;;;;24.10;10.43;;;;;5.90;101364.00;;;;10397717;28;20280;-78
2023/12/27 02:47:42;;;;;;;22.47;10.57;;;;;6.00;101345.00;;;;10417828;28;20229;-78
2023/12/27 02:52:44;;;;;;;24.60;10.73;;;;;6.10;101333.00;;;;10414207;28;20233;-78
2023/12/27 02:57:46;;;;;;;24.20;10.10;;;;;6.10;101318.00;;;;10378533;28;20607;-78
2023/12/27 03:02:47;;;;;;;28.53;11.67;;;;;6.20;101312.00;;;;10395260;28;20229;-78
2023/12/27 03:07:48;;;;;;;25.07;10.80;;;;;6.30;101294.00;;;;10375201;28;20575;-78
2023/12/27 03:12:50;;;;;;;23.07;10.87;;;;;6.30;101298.00;;;;10384888;28;20237;-78
2023/12/27 03:17:51;;;;;;;20.77;9.80;;;;;6.40;101282.00;;;;10370604;28;20218;-79
2023/12/27 03:22:52;;;;;;;22.67;9.50;;;;;6.40;101267.00;;;;10394891;28;20258;-78
2023/12/27 03:27:54;;;;;;;18.63;9.50;;;;;6.50;101251.00;;;;10394389;28;20256;-78
2023/12/27 03:32:56;;;;;;;23.10;10.07;;;;;6.50;101249.00;;;;10387063;28;20241;-81
2023/12/27 03:37:57;;;;;;;18.13;9.80;;;;;6.60;101251.00;;;;10391380;28;20928;-78
2023/12/27 03:42:59;;;;;;;24.50;11.43;;;;;6.70;101242.00;;;;10390512;28;20248;-79
2023/12/27 03:48:01;;;;;;;26.03;11.60;;;;;6.90;101229.00;;;;10384374;28;20218;-81
2023/12/27 03:53:03;;;;;;;28.50;11.37;;;;;7.00;101239.00;;;;10385323;28;20229;-79
2023/12/27 03:58:04;;;;;;;21.63;11.37;;;;;7.10;101223.00;;;;10403712;28;20237;-79
2023/12/27 04:03:05;;;;;;;25.60;11.53;;;;;7.20;101222.00;;;;10407902;28;20233;-78
2023/12/27 04:08:07;;;;;;;18.73;11.17;;;;;7.20;101211.00;;;;10372820;28;20230;-79
2023/12/27 04:13:08;;;;;;;25.30;11.20;;;;;7.20;101213.00;;;;10394640;28;20313;-79
2023/12/27 04:18:11;;;;;;;14.20;8.93;;;;;7.30;101217.00;;;;10399004;28;20237;-79
2023/12/27 04:23:13;;;;;;;19.47;9.67;;;;;7.30;101212.00;;;;10375082;28;20929;-79
2023/12/27 04:28:14;;;;;;;17.63;10.00;;;;;7.40;101213.00;;;;10388728;28;20225;-78
2023/12/27 04:33:15;;;;;;;17.23;9.70;;;;;7.40;101200.00;;;;10372817;28;20242;-80
2023/12/27 04:38:17;;;;;;;21.57;9.90;;;;;7.50;101205.00;;;;10380225;28;20214;-79
2023/12/27 04:43:18;;;;;;;17.73;9.77;;;;;7.60;101201.00;;;;10401905;28;20943;-78
2023/12/27 04:48:19;;;;;;;17.97;8.73;;;;;7.60;101196.00;;;;10389688;28;20619;-76
2023/12/27 04:53:21;;;;;;;12.43;8.00;;;;;7.70;101180.00;;;;10370281;28;20309;-77
2023/12/27 04:58:22;;;;;;;19.63;7.77;;;;;7.80;101180.00;;;;10337433;28;20233;-77
2023/12/27 05:03:23;;;;;;;15.27;7.07;;;;;7.90;101169.00;;;;10418576;28;20233;-79
2023/12/27 05:08:25;;;;;;;15.77;6.93;;;;;7.90;101162.00;;;;10365086;28;20239;-77
2023/12/27 05:13:26;;;;;;;13.33;6.70;;;;;7.90;101156.00;;;;10351293;28;20247;-77
2023/12/27 05:18:27;;;;;;;11.93;6.77;;;;;8.00;101158.00;;;;10329329;28;20293;-76
2023/12/27 05:23:29;;;;;;;16.53;7.80;;;;;8.00;101163.00;;;;10328312;28;20227;-79
2023/12/27 05:28:30;;;;;;;10.60;6.40;;;;;8.00;101170.00;;;;10335273;28;20881;-77
2023/12/27 05:33:32;;;;;;;10.00;6.23;;;;;8.10;101153.00;;;;10335550;28;20250;-78
2023/12/27 05:38:33;;;;;;;8.80;6.50;;;;;8.20;101131.00;;;;10338931;28;20302;-78
2023/12/27 05:43:34;;;;;;;9.93;6.37;;;;;8.20;101129.00;;;;10383208;28;20646;-77
2023/12/27 05:48:35;;;;;;;6.67;5.43;;;;;8.20;101129.00;;;;10386862;28;20215;-79
2023/12/27 05:53:37;;;;;;;8.40;5.20;;;;;8.30;101117.00;;;;10402752;28;20229;-79
2023/12/27 05:58:38;;;;;;;9.27;5.07;;;;;8.30;101124.00;;;;10403186;28;20218;-79
2023/12/27 06:03:39;;;;;;;6.33;4.73;;;;;8.30;101103.00;;;;10372132;28;20231;-78
2023/12/27 06:08:41;;;;;;;8.10;4.27;;;;;8.30;101114.00;;;;10370548;28;20245;-78
2023/12/27 06:13:42;;;;;;;6.63;4.50;;;;;8.30;101108.00;;;;10381174;28;20218;-79
2023/12/27 06:18:44;;;;;;;4.57;3.93;;;;;8.40;101100.00;;;;10389604;28;20260;-78
2023/12/27 06:23:46;;;;;;;6.40;3.27;;;;;8.50;101099.00;;;;10367943;28;20300;-78
2023/12/27 06:28:47;;;;;;;3.90;3.33;;;;;8.50;101086.00;;;;10397893;28;20225;-79
2023/12/27 06:33:49;;;;;;;2.80;2.43;;;;;8.60;101104.00;;;;10365471;28;20759;-78
2023/12/27 06:38:50;;;;;;;4.17;2.47;;;;;8.70;101090.00;;;;10399547;28;20266;-78
2023/12/27 06:43:51;;;;;;;2.80;2.40;;;;;8.70;101109.00;;;;10395994;28;20245;-79
2023/12/27 06:48:52;;;;;;;4.77;3.07;;;;;8.80;101109.00;;;;10403298;28;20927;-79
2023/12/27 06:53:54;;;;;;;2.50;2.30;;;;;8.90;101095.00;;;;10394545;28;20221;-79
2023/12/27 06:58:55;;;;;;;5.33;2.40;;;;;9.00;101071.00;;;;10396795;28;20229;-79
2023/12/27 07:03:56;;;;;;;2.10;1.80;;;;;9.00;101066.00;;;;10384719;28;20237;-79
2023/12/27 07:08:57;;;;;;;4.27;1.80;;;;;9.00;101047.00;;;;10377197;28;20820;-79
2023/12/27 07:13:58;;;;;;;2.90;1.70;;;;;8.90;101043.00;;;;10408146;28;20965;-79
2023/12/27 07:19:01;;;;;;;3.57;1.70;;;;;8.90;101038.00;;;;10347554;28;20237;-79
2023/12/27 07:24:02;;;;;;;2.43;1.80;;;;;8.90;101019.00;;;;10338077;28;20262;-79
2023/12/27 07:29:04;;;;;;;3.27;2.10;;;;;8.90;101044.00;;;;10347132;28;20672;-79
2023/12/27 07:34:05;;;;;;;3.47;2.27;;;;;8.90;101032.00;;;;10365781;28;20234;-78
2023/12/27 07:39:09;;;;;;;3.17;1.50;;;;;8.90;101034.00;;;;10385313;28;20222;-80
2023/12/27 07:44:10;;;;;;;2.27;1.50;;;;;9.00;101038.00;;;;10371547;28;20234;-81
2023/12/27 07:49:12;;;;;;;6.87;1.80;;;;;9.00;101041.00;;;;10379357;28;20237;-79
2023/12/27 07:54:13;;;;;;;5.87;1.93;;;;;9.10;101046.00;;;;10370591;28;20222;-79
2023/12/27 07:59:14;;;;;;;3.97;2.10;;;;;9.20;101042.00;;;;10388746;28;20233;-80
2023/12/27 08:04:15;;;;;;;2.80;1.80;;;;;9.20;101039.00;;;;10394573;28;20260;-82
2023/12/27 08:09:18;;;;;;;3.17;1.93;;;;;9.30;101047.00;;;;10386436;28;21104;-76
2023/12/27 08:14:19;;;;;;;3.53;2.10;;;;;9.30;101038.00;;;;10384022;28;20218;-76
2023/12/27 08:19:20;;;;;;;3.10;1.97;;;;;9.40;101027.00;;;;10368076;28;20888;-77
2023/12/27 08:24:21;;;;;;;3.73;2.00;;;;;9.50;101037.00;;;;10374240;28;20844;-76
2023/12/27 08:29:23;;;;;;;3.23;1.83;;;;;9.50;101022.00;;;;10402319;28;20692;-78
2023/12/27 08:34:24;;;;;;;3.13;2.30;;;;;9.50;101027.00;;;;10398015;28;20225;-76
2023/12/27 08:39:25;;;;;;;4.43;2.30;;;;;9.50;101010.00;;;;10413706;28;20215;-78
2023/12/27 08:44:26;;;;;;;8.17;2.90;;;;;9.50;101007.00;;;;10390824;28;20784;-76
2023/12/27 08:49:27;;;;;;;4.33;3.33;;;;;9.60;101004.00;;;;10375564;28;20241;-78
2023/12/27 08:54:29;;;;;;;6.50;2.47;;;;;9.60;101012.00;;;;10387383;28;20226;-76
2023/12/27 08:59:30;;;;;;;6.53;2.57;;;;;9.70;101018.00;;;;10383044;28;20710;-77
2023/12/27 09:04:32;;;;;;;6.17;2.70;;;;;9.70;101013.00;;;;10401417;28;20615;-77
2023/12/27 09:09:33;;;;;;;9.50;2.90;;;;;9.70;101013.00;;;;10399446;28;20300;-76
2023/12/27 09:14:38;;;;;;;5.27;2.93;;;;;9.80;100999.00;;;;10383399;28;20227;-78
2023/12/27 09:19:39;;;;;;;8.53;3.50;;;;;9.90;100987.00;;;;10376157;28;20265;-81
2023/12/27 09:24:43;;;;;;;4.07;2.67;;;;;9.90;101006.00;;;;10378685;28;20571;-80
2023/12/27 09:29:45;;;;;;;4.17;3.00;;;;;9.90;101002.00;;;;10382964;28;20214;-80
2023/12/27 09:34:46;;;;;;;7.17;3.03;;;;;9.90;101002.00;;;;10389510;28;20305;-80
2023/12/27 09:39:48;;;;;;;4.73;2.70;;;;;9.90;100991.00;;;;10389538;28;20306;-80
2023/12/27 09:44:52;;;;;;;5.40;3.00;;;;;9.90;100997.00;;;;10384247;28;20230;-80
2023/12/27 09:49:55;;;;;;;8.23;3.37;;;;;9.90;101016.00;;;;10348812;28;20223;-82
2023/12/27 09:54:56;;;;;;;4.40;3.00;;;;;9.90;101001.00;;;;10350939;28;20629;-82
2023/12/27 09:59:59;;;;;;;6.70;3.37;;;;;10.00;101000.00;;;;10345656;28;20240;-81
2023/12/27 10:05:11;;;;;;;11.87;3.53;;;;;10.10;100999.00;;;;10386199;28;20230;-81
2023/12/27 10:10:13;;;;;;;6.43;2.83;;;;;10.10;100984.00;;;;10386735;28;20219;-82
2023/12/27 10:15:28;;;;;;;8.87;3.47;;;;;10.20;100983.00;;;;10363228;28;20222;-82
2023/12/27 10:20:32;;;;;;;5.20;3.00;;;;;10.20;100983.00;;;;10381313;28;20233;-82
2023/12/27 10:25:35;;;;;;;10.10;3.80;;;;;10.30;100969.00;;;;10393310;28;20272;-82
2023/12/27 10:30:36;;;;;;;8.70;3.50;;;;;10.40;100974.00;;;;10371481;28;20223;-79
2023/12/27 10:35:38;;;;;;;8.77;3.70;;;;;10.50;100962.00;;;;10379839;28;20265;-80
2023/12/27 10:40:40;;;;;;;13.33;3.80;;;;;10.50;100962.00;;;;10417378;28;20249;-79
2023/12/27 10:45:42;;;;;;;6.87;3.57;;;;;10.60;100947.00;;;;10423914;28;20214;-80
2023/12/27 10:50:44;;;;;;;8.10;3.20;;;;;10.60;100947.00;;;;10408897;28;20951;-80
2023/12/27 10:55:48;;;;;;;9.53;3.33;;;;;10.70;100921.00;;;;10421651;28;20243;-80
2023/12/27 11:00:51;;;;;;;8.10;3.47;;;;;10.70;100924.00;;;;10400737;28;20681;-80
2023/12/27 11:05:52;;;;;;;8.53;3.07;;;;;10.70;100904.00;;;;10399063;28;20351;-80
2023/12/27 11:10:54;;;;;;;8.13;3.20;;;;;10.80;100908.00;;;;10408070;28;20218;-79
2023/12/27 11:15:57;;;;;;;15.03;3.60;;;;;10.90;100903.00;;;;10398416;28;20230;-79
2023/12/27 11:20:58;;;;;;;11.33;3.50;;;;;10.90;100899.00;;;;10393224;28;20999;-80
2023/12/27 11:26:00;;;;;;;7.43;3.17;;;;;11.10;100881.00;;;;10415620;28;20683;-80
2023/12/27 11:31:04;;;;;;;14.83;3.90;;;;;11.20;100897.00;;;;10403760;28;20226;-79
2023/12/27 11:36:07;;;;;;;8.83;2.87;;;;;11.20;100880.00;;;;10424308;28;20253;-79
2023/12/27 11:41:10;;;;;;;8.13;2.73;;;;;11.20;100859.00;;;;10391442;28;20241;-83
2023/12/27 11:46:13;;;;;;;5.47;2.87;;;;;11.20;100851.00;;;;10394701;28;20230;-83
2023/12/27 11:51:32;;;;;;;7.07;3.07;;;;;11.10;100827.00;;;;10421893;28;20231;-82
2023/12/27 11:56:35;;;;;;;9.33;3.27;;;;;11.10;100813.00;;;;10381782;28;20239;-84
2023/12/27 12:01:41;;;;;;;10.23;3.47;;;;;11.10;100814.00;;;;10406544;28;20884;-84
2023/12/27 12:06:54;;;;;;;10.13;2.63;;;;;11.10;100807.00;;;;10386588;28;20242;-85
2023/12/27 12:11:57;;;;;;;4.40;2.57;;;;;11.10;100794.00;;;;10401660;28;20221;-83
2023/12/27 12:16:58;;;;;;;7.37;2.97;;;;;11.00;100781.00;;;;10403357;28;20222;-83
2023/12/27 12:22:01;;;;;;;9.07;3.03;;;;;11.00;100769.00;;;;10401273;28;20228;-84
2023/12/27 12:27:02;;;;;;;6.90;2.40;;;;;10.90;100768.00;;;;10400356;28;20226;-83
2023/12/27 12:32:04;;;;;;;6.57;2.53;;;;;10.80;100770.00;;;;10386331;28;20837;-84
2023/12/27 12:37:05;;;;;;;7.27;2.83;;;;;10.70;100766.00;;;;10368747;28;20564;-84
2023/12/27 12:42:07;;;;;;;6.47;3.33;;;;;10.70;100747.00;;;;10389950;28;20287;-84
2023/12/27 12:47:09;;;;;;;5.83;2.50;;;;;10.60;100734.00;;;;10382837;28;20222;-83
2023/12/27 12:52:10;;;;;;;6.47;2.60;;;;;10.70;100724.00;;;;10363379;28;20796;-83
2023/12/27 12:57:11;;;;;;;9.37;2.60;;;;;10.70;100704.00;;;;10378014;28;20253;-83
2023/12/27 13:02:13;;;;;;;8.53;2.77;;;;;10.70;100688.00;;;;10408976;28;20325;-85
2023/12/27 13:07:34;;;;;;;5.83;2.63;;;;;10.80;100692.00;;;;10716141;22;20213;31
2023/12/27 13:12:47;;;;;;;9.27;2.53;;;;;10.80;100690.00;;;;10432594;23;20228;31
2023/12/27 13:17:49;;;;;;;6.83;2.93;;;;;10.80;100672.00;;;;10993098;23;20237;-87
2023/12/27 13:22:50;;;;;;;6.47;2.17;;;;;10.80;100673.00;;;;10963314;23;20364;-84
2023/12/27 13:27:51;;;;;;;6.50;2.80;;;;;10.80;100658.00;;;;10269743;28;20220;-86
2023/12/27 13:33:27;;;;;;;8.63;2.30;;;;;10.70;100654.00;;;;11083069;23;20239;31
2023/12/27 13:51:40;;;;;;;4.83;1.93;;;;;10.50;100616.00;;;;3199939;24;20210;31
2023/12/27 13:56:49;;;;;;;5.10;2.10;;;;;10.50;100606.00;;;;10420161;24;20486;31
2023/12/27 14:07:50;;;;;;;6.97;1.90;;;;;10.50;100607.00;;;;10497713;24;20217;-85
2023/12/27 14:12:52;;;;;;;8.17;2.30;;;;;10.40;100580.00;;;;9987145;24;21154;-78
2023/12/27 14:17:53;;;;;;;6.70;2.13;;;;;10.30;100576.00;;;;9840979;29;20240;-80
2023/12/27 14:22:54;;;;;;;4.90;2.30;;;;;10.30;100579.00;;;;9839212;30;20240;-79
2023/12/27 14:27:57;;;;;;;5.77;2.33;;;;;10.20;100561.00;;;;9852187;29;20240;-81
2023/12/27 14:32:59;;;;;;;6.43;2.17;;;;;10.10;100560.00;;;;9819872;30;20244;-79
2023/12/27 14:38:01;;;;;;;5.03;2.20;;;;;10.10;100553.00;;;;9835226;30;20248;-79
2023/12/27 14:43:03;;;;;;;3.53;1.97;;;;;10.00;100548.00;;;;9839782;30;20240;-78
2023/12/27 14:48:04;;;;;;;3.67;1.80;;;;;9.90;100545.00;;;;9844663;29;20239;-82
2023/12/27 14:53:06;;;;;;;7.93;2.20;;;;;9.90;100539.00;;;;9839335;30;20240;-78
2023/12/27 14:58:07;;;;;;;4.70;1.87;;;;;9.80;100532.00;;;;9824708;30;20323;-77
2023/12/27 15:03:12;;;;;;;5.93;2.00;;;;;9.70;100527.00;;;;9820784;30;20243;-77
2023/12/27 15:08:14;;;;;;;8.53;2.33;;;;;9.60;100522.00;;;;9810762;30;20853;-79
2023/12/27 15:13:16;;;;;;;4.50;2.10;;;;;9.50;100512.00;;;;9842448;29;20274;-80
2023/12/27 15:18:17;;;;;;;4.03;1.53;;;;;9.30;100514.00;;;;9822794;30;20319;-79
2023/12/27 15:23:19;;;;;;;8.27;2.50;;;;;9.20;100505.00;;;;9837344;29;20337;-83
2023/12/27 15:28:24;;;;;;;5.83;2.03;;;;;9.20;100507.00;;;;9828653;30;20240;-83
2023/12/27 15:33:25;;;;;;;6.93;2.30;;;;;9.10;100498.00;;;;9820185;30;20231;-84
2023/12/27 15:38:29;;;;;;;4.43;1.90;;;;;9.10;100475.00;;;;9827307;29;20239;-84
2023/12/27 15:43:33;;;;;;;5.53;1.70;;;;;9.00;100464.00;;;;9824348;30;20240;-84
2023/12/27 15:48:34;;;;;;;5.13;1.60;;;;;9.00;100456.00;;;;9835057;30;20332;-84
2023/12/27 15:53:36;;;;;;;1.43;1.23;;;;;8.90;100461.00;;;;9837693;30;20235;-83
2023/12/27 15:58:37;;;;;;;6.33;2.00;;;;;8.90;100455.00;;;;9827158;29;20236;-85
2023/12/27 16:03:38;;;;;;;5.23;2.20;;;;;8.80;100465.00;;;;9843470;29;20240;-85
2023/12/27 16:08:43;;;;;;;3.80;1.73;;;;;8.80;100464.00;;;;9822140;29;20937;-84
2023/12/27 16:13:48;;;;;;;5.27;1.97;;;;;8.70;100434.00;;;;9862583;29;20242;-86
2023/12/27 16:18:49;;;;;;;8.57;2.57;;;;;8.70;100438.00;;;;9826674;29;20267;-86
2023/12/27 16:23:51;;;;;;;6.63;2.77;;;;;8.70;100424.00;;;;9808337;30;20303;-85
2023/12/27 16:28:53;;;;;;;5.17;2.50;;;;;8.60;100410.00;;;;9810120;30;20235;-85
2023/12/27 16:33:54;;;;;;;7.03;1.90;;;;;8.60;100393.00;;;;9830293;30;20285;-83
2023/12/27 16:38:56;;;;;;;2.10;1.40;;;;;8.60;100382.00;;;;9837162;29;20236;-86
2023/12/27 16:43:57;;;;;;;4.20;1.57;;;;;8.60;100393.00;;;;9837933;29;20243;-84
2023/12/27 16:49:01;;;;;;;3.30;1.93;;;;;8.60;100383.00;;;;9817986;30;20301;-85
2023/12/27 16:54:03;;;;;;;6.30;1.83;;;;;8.50;100379.00;;;;9824269;30;20243;-83
2023/12/27 16:59:04;;;;;;;3.30;1.70;;;;;8.50;100376.00;;;;9828708;29;20240;-84
2023/12/27 17:04:05;;;;;;;6.10;1.93;;;;;8.40;100367.00;;;;9819509;29;20252;-84
2023/12/27 17:09:08;;;;;;;3.30;1.90;;;;;8.40;100362.00;;;;9829462;29;20638;-85
2023/12/27 17:14:09;;;;;;;3.33;2.27;;;;;8.40;100345.00;;;;9844582;29;20833;-85
2023/12/27 17:19:10;;;;;;;6.43;2.00;;;;;8.40;100317.00;;;;9833449;30;20262;-85
2023/12/27 17:24:12;;;;;;;3.97;1.67;;;;;8.30;100323.00;;;;9818035;29;20305;-83
2023/12/27 17:29:13;;;;;;;2.70;1.80;;;;;8.30;100314.00;;;;9835346;29;20236;-84
2023/12/27 17:34:14;;;;;;;5.63;1.80;;;;;8.40;100309.00;;;;9844203;30;20240;-84
2023/12/27 17:39:16;;;;;;;3.20;1.53;;;;;8.50;100314.00;;;;9836604;29;20696;-88
2023/12/27 17:44:17;;;;;;;2.53;1.77;;;;;8.60;100321.00;;;;9828174;30;20239;-86
2023/12/27 17:49:18;;;;;;;5.63;1.90;;;;;8.60;100299.00;;;;9828825;30;20387;-85
2023/12/27 17:54:20;;;;;;;4.47;1.70;;;;;8.70;100288.00;;;;9820691;30;20239;-86
2023/12/27 17:59:21;;;;;;;4.10;1.40;;;;;8.70;100310.00;;;;9812045;30;20236;-87
2023/12/27 18:04:23;;;;;;;4.73;1.90;;;;;8.70;100303.00;;;;9825105;29;20239;-86
2023/12/27 18:09:25;;;;;;;4.40;1.73;;;;;8.70;100313.00;;;;9820007;30;20266;-87
2023/12/27 18:14:26;;;;;;;4.40;1.30;;;;;8.70;100297.00;;;;9848726;29;20235;-86
2023/12/27 18:19:27;;;;;;;4.13;1.67;;;;;8.80;100306.00;;;;9805145;30;20270;-85
2023/12/27 18:24:31;;;;;;;4.07;1.17;;;;;8.70;100317.00;;;;9838337;29;20311;-86
2023/12/27 18:29:36;;;;;;;4.70;1.43;;;;;8.80;100307.00;;;;9815849;30;20703;-86
2023/12/27 18:34:39;;;;;;;2.77;1.70;;;;;8.70;100303.00;;;;9843495;30;20235;-87
2023/12/27 18:39:40;;;;;;;3.53;1.10;;;;;8.80;100300.00;;;;9819510;29;20841;-86
2023/12/27 18:44:42;;;;;;;3.90;2.03;;;;;8.80;100277.00;;;;9847605;29;20240;-86
2023/12/27 18:49:44;;;;;;;4.40;1.80;;;;;8.80;100263.00;;;;9835244;30;20695;-79
2023/12/27 18:54:45;;;;;;;5.97;1.93;;;;;8.80;100304.00;;;;9834087;29;20292;-79
2023/12/27 18:59:46;;;;;;;3.10;1.77;;;;;9.00;100314.00;;;;9824853;30;20243;-78
2023/12/27 19:04:47;;;;;;;1.60;1.47;;;;;9.00;100308.00;;;;9815921;30;20243;-79
2023/12/27 19:09:49;;;;;;;2.50;1.30;;;;;9.00;100308.00;;;;9830193;29;20236;-78
2023/12/27 19:14:50;;;;;;;3.10;1.40;;;;;9.10;100293.00;;;;9822785;30;20240;-79
2023/12/27 19:19:51;;;;;;;1.80;1.33;;;;;9.10;100290.00;;;;9841111;29;20232;-80
2023/12/27 19:24:53;;;;;;;3.37;1.57;;;;;9.20;100282.00;;;;9852845;30;20289;-79
2023/12/27 19:29:54;;;;;;;2.77;1.73;;;;;9.30;100284.00;;;;9827225;30;20224;-80
2023/12/27 19:34:55;;;;;;;2.67;1.60;;;;;9.40;100273.00;;;;9822726;30;20231;-80
2023/12/27 19:39:57;;;;;;;2.27;1.50;;;;;9.50;100271.00;;;;9869731;29;20281;-79
2023/12/27 19:44:58;;;;;;;3.13;1.50;;;;;9.60;100283.00;;;;9829427;29;20318;-80
2023/12/27 19:49:59;;;;;;;2.13;1.77;;;;;9.60;100288.00;;;;9839414;29;20965;-80
2023/12/27 19:55:01;;;;;;;2.43;1.50;;;;;9.50;100298.00;;;;9822539;30;20241;-79
2023/12/27 20:00:03;;;;;;;2.90;1.57;;;;;9.40;100311.00;;;;9824763;30;20259;-83
2023/12/27 20:05:06;;;;;;;4.07;1.43;;;;;9.40;100290.00;;;;9824657;30;20263;-81
2023/12/27 20:10:08;;;;;;;4.40;2.03;;;;;9.50;100313.00;;;;9836485;29;20242;-82
2023/12/27 20:15:09;;;;;;;2.67;1.80;;;;;9.60;100321.00;;;;9834308;29;20274;-80
2023/12/27 20:20:11;;;;;;;2.80;1.40;;;;;9.50;100317.00;;;;9826585;30;20236;-81
2023/12/27 20:25:12;;;;;;;1.63;1.53;;;;;9.30;100306.00;;;;9812440;30;20240;-80
2023/12/27 20:30:14;;;;;;;2.83;1.60;;;;;9.40;100316.00;;;;9828941;29;20250;-80
2023/12/27 20:35:16;;;;;;;3.23;1.50;;;;;9.60;100311.00;;;;9826907;29;20872;-82
2023/12/27 20:40:18;;;;;;;2.00;1.40;;;;;9.80;100313.00;;;;9834868;29;20250;-81
2023/12/27 20:45:20;;;;;;;2.17;1.70;;;;;10.00;100319.00;;;;9823396;30;20278;-82
2023/12/27 20:50:22;;;;;;;2.33;1.60;;;;;10.10;100321.00;;;;9818378;30;20275;-82
2023/12/27 20:55:24;;;;;;;2.20;1.57;;;;;10.20;100347.00;;;;9817092;30;20284;-81
2023/12/27 21:00:25;;;;;;;3.33;2.00;;;;;10.20;100358.00;;;;9813097;30;20289;-81
2023/12/27 21:05:26;;;;;;;2.60;1.80;;;;;10.30;100355.00;;;;9840273;29;20231;-81
2023/12/27 21:10:27;;;;;;;2.60;1.97;;;;;10.30;100369.00;;;;9822578;29;20277;-82
2023/12/27 21:15:29;;;;;;;3.17;1.37;;;;;10.40;100352.00;;;;9818880;30;20239;-84
2023/12/27 21:20:30;;;;;;;2.27;1.77;;;;;10.40;100350.00;;;;9816939;30;20238;-83
2023/12/27 21:25:32;;;;;;;5.57;1.93;;;;;10.30;100357.00;;;;9827516;30;20236;-83
2023/12/27 21:30:34;;;;;;;3.30;2.07;;;;;10.30;100380.00;;;;9819765;29;20895;-83
2023/12/27 21:35:35;;;;;;;3.27;1.90;;;;;10.40;100398.00;;;;9846321;29;20868;-83
2023/12/27 21:40:37;;;;;;;2.93;1.73;;;;;10.30;100392.00;;;;9825367;29;20289;-83
2023/12/27 21:45:38;;;;;;;2.83;1.73;;;;;10.30;100386.00;;;;9824665;29;20243;-83
2023/12/27 21:50:39;;;;;;;2.83;2.00;;;;;10.30;100391.00;;;;9834954;29;20637;-83
2023/12/27 21:55:41;;;;;;;3.57;1.80;;;;;10.30;100386.00;;;;9829006;29;20235;-81
2023/12/27 22:00:42;;;;;;;4.90;2.20;;;;;10.40;100395.00;;;;9819897;30;20655;-83
2023/12/27 22:05:43;;;;;;;2.53;1.80;;;;;10.40;100384.00;;;;9834170;30;20251;-83
2023/12/27 22:10:45;;;;;;;2.77;1.97;;;;;10.30;100374.00;;;;9838558;29;20321;-84
2023/12/27 22:15:46;;;;;;;2.57;1.80;;;;;10.10;100386.00;;;;9819319;29;20378;-82
2023/12/27 22:20:59;;;;;;;2.70;2.10;;;;;10.10;100391.00;;;;9825316;30;20233;-80
2023/12/27 22:26:01;;;;;;;2.87;2.07;;;;;10.10;100407.00;;;;9823178;29;20236;-79
2023/12/27 22:31:02;;;;;;;2.27;1.80;;;;;10.20;100416.00;;;;9845377;29;20323;-80
2023/12/27 22:36:07;;;;;;;3.50;1.90;;;;;10.20;100424.00;;;;9846405;30;20721;-80
2023/12/27 22:41:08;;;;;;;2.90;2.43;;;;;10.20;100423.00;;;;9844731;30;20867;-79
2023/12/27 22:46:10;;;;;;;4.27;2.37;;;;;10.20;100425.00;;;;9826716;30;20232;-79
2023/12/27 22:51:11;;;;;;;3.30;2.27;;;;;10.20;100429.00;;;;9846124;29;20239;-79
2023/12/27 22:56:12;;;;;;;2.77;2.47;;;;;10.20;100426.00;;;;9831463;30;20317;-79
2023/12/27 23:01:14;;;;;;;3.90;2.37;;;;;10.20;100437.00;;;;9813117;30;21008;-80
2023/12/27 23:06:16;;;;;;;3.57;2.77;;;;;10.20;100435.00;;;;9838924;30;20233;-80
2023/12/27 23:11:17;;;;;;;4.13;2.30;;;;;10.10;100435.00;;;;9813877;29;20236;-79
2023/12/27 23:16:19;;;;;;;5.03;2.60;;;;;10.10;100445.00;;;;9828334;30;20232;-80
2023/12/27 23:21:20;;;;;;;5.87;2.77;;;;;10.20;100447.00;;;;9822288;30;20228;-80
2023/12/27 23:26:21;;;;;;;4.90;2.50;;;;;10.10;100448.00;;;;9820038;30;20879;-79
2023/12/27 23:31:22;;;;;;;3.47;2.10;;;;;10.00;100457.00;;;;9831411;29;20335;-78
2023/12/27 23:36:24;;;;;;;3.53;2.00;;;;;10.00;100460.00;;;;9820221;30;20236;-78
2023/12/27 23:41:25;;;;;;;3.67;2.37;;;;;10.00;100471.00;;;;9830054;29;20358;-79
2023/12/27 23:46:27;;;;;;;3.93;2.37;;;;;10.00;100474.00;;;;9804841;30;20289;-79
2023/12/27 23:51:31;;;;;;;3.33;2.57;;;;;10.00;100468.00;;;;9831452;29;20253;-78
2023/12/27 23:56:32;;;;;;;2.87;2.60;;;;;10.00;100471.00;;;;9819479;30;20240;-79
